Latest Weather Observations for Broken Hill Airport

IDN60801

Issued at 8:52 pm EST Wednesday 5 August 2020 (issued every 10 minutes, with the page automatically refreshed every 10 minutes)

About weather observations | Map of weather stations | Latest weather observations for NSW | Other Formats
Station Details ID: 047048 Name: BROKEN HILL AIRPORT AWS Lat: -32.00 Lon: 141.47 Height: 281.3 m
Data from the previous 72 hours. | See also: Recent months at Broken Hill Airport

Observations are collected in the New South Wales time zone (Eastern Standard Time) which includes daylight savings in the summer period. Therefore 'Rain since 9am' totals and other values are based on the New South Wales time zone, which may differ from local time.

Date/Time
EST
Temp
°C
App
Temp
°C
Dew
Point
°C
Rel
Hum
%
Delta-T
°C
Wind Press
QNH
hPa
Press
MSL
hPa
Rain since
9am
mm
Dir  Spd
km/h
Gust
km/h
Spd
kts
Gust
kts
05/08:30pm 8.2 2.5 -7.9 31 5.3 SE 15 17 8 9 1018.6 1018.7 0.0
05/08:00pm 7.7 2.0 -7.9 32 5.1 SE 15 17 8 9 1018.2 1018.3 0.0
05/07:30pm 7.9 2.6 -7.7 32 5.2 ESE 13 15 7 8 1018.3 1018.4 0.0
05/07:00pm 8.6 3.3 -7.5 31 5.4 SE 13 15 7 8 1017.8 1017.9 0.0
05/06:30pm 9.2 3.5 -7.0 31 5.5 SE 15 17 8 9 1017.6 1017.7 0.0
05/06:00pm 10.2 4.6 -6.6 30 5.9 SE 15 19 8 10 1017.6 1017.7 0.0
05/05:30pm 11.1 5.6 -5.8 30 6.1 SE 15 20 8 11 1017.9 1018.0 0.0
05/05:00pm 11.7 5.8 -5.7 29 6.3 SE 17 22 9 12 1017.7 1017.8 0.0
05/04:30pm 12.0 6.8 -5.9 28 6.5 SE 13 20 7 11 1017.6 1017.7 0.0
05/04:00pm 12.0 6.4 -5.9 28 6.5 SE 15 22 8 12 1017.8 1017.9 0.0
05/03:30pm 12.2 7.0 -6.2 27 6.7 ESE 13 22 7 12 1017.9 1018.0 0.0
05/03:00pm 11.7 5.8 -5.3 30 6.2 SE 17 26 9 14 1017.7 1017.8 0.0
05/02:30pm 11.5 5.7 -5.0 31 6.1 SE 17 20 9 11 1017.8 1017.9 0.0
05/02:00pm 11.0 6.3 -5.0 32 5.9 E 11 17 6 9 1018.4 1018.5 0.0
05/01:30pm 10.7 5.6 -4.9 33 5.7 ESE 13 20 7 11 1018.9 1019.0 0.0
05/01:00pm 10.4 4.7 -4.0 36 5.4 E 17 26 9 14 1019.4 1019.4 0.0
05/12:30pm 10.5 5.3 -2.8 39 5.1 ESE 15 24 8 13 1020.0 1020.1 0.0
05/12:00pm 9.9 4.0 -2.4 42 4.7 SE 19 28 10 15 1020.5 1020.6 0.0
05/11:30am 10.0 4.3 -1.1 46 4.4 ESE 19 24 10 13 1020.7 1020.8 0.0
05/11:00am 9.4 3.1 -1.3 47 4.2 ESE 22 30 12 16 1020.7 1020.8 0.0
05/10:30am 8.2 1.8 -1.6 50 3.8 ESE 22 28 12 15 1021.1 1021.2 0.0
05/10:00am 8.0 0.9 -1.0 53 3.5 E 26 32 14 17 1020.6 1020.7 0.0
05/09:30am 7.3 1.4 -0.6 57 3.1 ESE 20 26 11 14 1020.4 1020.5 0.0
05/09:00am 6.3 0.1 -0.2 63 2.5 ESE 22 28 12 15 1020.3 1020.4 0.0
05/08:30am 5.5 0.2 -0.5 65 2.3 E 17 22 9 12 1020.5 1020.6 0.0
05/08:00am 2.9 -1.8 -2.0 70 1.8 E 13 17 7 9 1020.1 1020.2 0.0
05/07:30am 2.8 -2.7 -2.3 69 1.8 E 17 20 9 11 1019.7 1019.7 0.0
05/07:00am 3.4 -2.5 -1.9 68 1.9 ESE 19 24 10 13 1019.3 1019.3 0.0
05/06:30am 3.1 -2.8 -2.4 67 2.0 ESE 19 22 10 12 1018.8 1018.9 0.0
05/06:00am 2.7 -2.6 -3.6 63 2.2 ESE 15 17 8 9 1018.8 1018.9 0.0
05/05:30am 3.0 -2.8 -4.2 59 2.4 SE 17 22 9 12 1018.6 1018.7 0.0
05/05:00am 2.8 -2.7 -5.1 56 2.6 SE 15 20 8 11 1018.5 1018.6 0.0
05/04:30am 1.1 -4.6 -7.2 54 2.6 SSE 15 17 8 9 1018.4 1018.5 0.0
05/04:00am 1.4 -2.8 -7.6 51 2.8 SSE 7 11 4 6 1018.6 1018.7 0.0
05/03:30am 1.7 -2.6 -8.4 47 3.1 SSE 7 9 4 5 1018.6 1018.7 0.0
05/03:00am 3.0 -1.2 -7.2 47 3.4 SE 7 9 4 5 1018.7 1018.8 0.0
05/02:30am 2.9 -2.0 -7.3 47 3.4 SE 11 13 6 7 1019.0 1019.1 0.0
05/02:00am 2.7 -1.4 -8.6 43 3.6 SSE 6 11 3 6 1019.4 1019.4 0.0
05/01:30am 2.0 -2.7 -8.9 44 3.4 SSE 9 11 5 6 1019.6 1019.6 0.0
05/01:00am 2.7 -2.0 -9.5 40 3.7 SSE 9 9 5 5 1019.7 1019.7 0.0
05/12:30am 2.9 -1.4 -8.4 43 3.6 SE 7 9 4 5 1019.7 1019.7 0.0
05/12:00am 2.8 -2.0 -10.1 38 3.9 SSE 9 13 5 7 1019.7 1019.7 0.0
 
Date/Time
EST
Temp
°C
App
Temp
°C
Dew
Point
°C
Rel
Hum
%
Delta-T
°C
Wind Press
QNH
hPa
Press
MSL
hPa
Rain since
9am
mm
Dir  Spd
km/h
Gust
km/h
Spd
kts
Gust
kts
04/11:30pm 4.2 -0.8 -8.5 39 3.9 SE 11 13 6 7 1019.8 1019.8 0.0
04/11:00pm 4.4 -0.7 -9.7 35 4.2 SE 11 13 6 7 1019.8 1019.8 0.0
04/10:30pm 5.0 -0.1 -9.5 34 4.4 SE 11 13 6 7 1019.9 1020.0 0.0
04/10:00pm 5.9 0.4 -9.1 33 4.6 SE 13 15 7 8 1019.8 1019.8 0.0
04/09:30pm 6.3 0.5 -9.2 32 4.8 SSE 15 17 8 9 1019.6 1019.6 0.0
04/09:00pm 6.8 0.6 -8.7 32 4.9 SSE 17 20 9 11 1019.4 1019.4 0.0
04/08:30pm 7.4 0.8 -8.6 31 5.1 SSE 19 22 10 12 1019.3 1019.3 0.0
04/08:00pm 7.9 1.4 -8.2 31 5.3 SSE 19 24 10 13 1019.0 1019.1 0.0
04/07:30pm 8.4 1.9 -8.1 30 5.5 SSE 19 20 10 11 1018.6 1018.7 0.0
04/07:00pm 9.1 2.7 -7.1 31 5.5 SSE 19 22 10 12 1018.4 1018.5 0.0
04/06:30pm 9.8 3.5 -6.1 32 5.6 SSE 19 24 10 13 1018.1 1018.2 0.0
04/06:00pm 10.7 3.9 -5.3 32 5.8 SSE 22 30 12 16 1017.8 1017.9 0.0
04/05:30pm 11.5 4.4 -4.2 33 5.9 SSE 24 30 13 16 1017.4 1017.5 0.0
04/05:00pm 12.0 5.1 -2.6 36 5.7 SSE 24 37 13 20 1017.3 1017.4 0.0
04/04:30pm 12.5 5.7 -1.8 37 5.8 SSE 24 32 13 17 1017.1 1017.2 0.0
04/04:00pm 12.7 5.6 -1.2 38 5.7 SSE 26 32 14 17 1017.0 1017.1 0.0
04/03:30pm 12.9 6.7 -0.4 40 5.5 SSE 22 30 12 16 1016.9 1017.0 0.0
04/03:00pm 12.9 6.4 0.3 42 5.3 SSE 24 35 13 19 1016.9 1017.0 0.0
04/02:30pm 12.4 6.4 0.8 45 4.9 SSE 22 33 12 18 1017.0 1017.1 0.0
04/02:00pm 11.9 5.2 1.5 49 4.5 S 26 35 14 19 1017.3 1017.4 0.0
04/01:30pm 11.5 4.9 2.3 53 4.0 S 26 37 14 20 1017.7 1017.8 0.0
04/01:00pm 11.5 5.1 3.0 56 3.8 S 26 35 14 19 1018.0 1018.1 0.0
04/12:30pm 11.4 5.0 3.2 57 3.6 SSE 26 35 14 19 1018.5 1018.6 0.0
04/12:00pm 10.7 3.9 3.0 59 3.4 SSE 28 35 15 19 1018.8 1018.9 0.0
04/11:30am 10.6 3.6 3.9 63 3.0 SSE 30 37 16 20 1019.0 1019.1 0.0
04/11:00am 10.5 3.0 3.3 61 3.2 SSE 32 39 17 21 1019.0 1019.1 0.0
04/10:30am 10.0 2.8 3.1 62 3.0 SSE 30 37 16 20 1019.0 1019.1 0.0
04/10:00am 9.4 2.2 2.9 64 2.8 SSE 30 35 16 19 1018.7 1018.8 0.0
04/09:30am 8.7 2.0 3.5 70 2.3 SSE 28 33 15 18 1018.4 1018.5 0.0
04/09:00am 8.0 2.5 4.0 76 1.8 SSE 22 32 12 17 1018.2 1018.3 0.0
04/08:30am 6.8 1.7 4.3 84 1.1 S 20 26 11 14 1017.9 1018.0 0.0
04/08:00am 5.6 1.3 3.4 86 0.9 S 15 19 8 10 1017.7 1017.8 0.0
04/07:30am 5.3 0.6 3.2 86 0.9 S 17 20 9 11 1017.4 1017.5 0.0
04/07:00am 5.6 1.3 3.1 84 1.1 S 15 19 8 10 1017.1 1017.2 0.0
04/06:30am 5.8 0.7 3.1 83 1.1 SSW 19 20 10 11 1016.9 1017.0 0.0
04/06:00am 6.1 1.0 3.3 82 1.2 SSW 19 22 10 12 1016.6 1016.6 0.0
04/05:30am 6.1 1.0 2.9 80 1.3 SSW 19 22 10 12 1016.3 1016.3 0.0
04/05:00am 6.0 1.6 2.6 79 1.4 SSW 15 17 8 9 1016.2 1016.2 0.0
04/04:30am 5.6 1.4 1.9 77 1.5 SSW 13 15 7 8 1016.2 1016.2 0.0
04/04:00am 6.2 2.1 2.1 75 1.7 SSW 13 17 7 9 1016.3 1016.3 0.0
04/03:30am 6.7 2.1 1.8 71 2.0 SSW 15 17 8 9 1016.2 1016.2 0.0
04/03:00am 6.1 1.3 0.2 66 2.3 SSW 15 17 8 9 1016.2 1016.2 0.0
04/02:30am 5.9 1.3 -1.3 60 2.7 S 13 13 7 7 1016.2 1016.2 0.0
04/02:00am 6.1 1.3 -2.5 54 3.2 SSW 13 15 7 8 1016.3 1016.3 0.0
04/01:30am 7.2 2.1 -1.7 53 3.4 SW 15 17 8 9 1016.7 1016.7 0.0
04/01:00am 6.0 0.9 -5.0 45 3.8 SW 13 17 7 9 1016.5 1016.5 0.0
04/12:30am 9.5 5.8 -2.8 42 4.7 WSW 7 9 4 5 1016.2 1016.2 0.0
04/12:00am 8.9 5.2 -3.0 43 4.5 W 7 9 4 5 1016.1 1016.1 0.0
 
Date/Time
EST
Temp
°C
App
Temp
°C
Dew
Point
°C
Rel
Hum
%
Delta-T
°C
Wind Press
QNH
hPa
Press
MSL
hPa
Rain since
9am
mm
Dir  Spd
km/h
Gust
km/h
Spd
kts
Gust
kts
03/11:30pm 9.9 6.2 -3.0 40 4.9 WSW 7 13 4 7 1016.0 1016.0 0.0
03/11:18pm 9.3 4.2 -5.4 35 5.2 WNW 13 26 7 14 1016.2 1016.2 0.0
03/11:00pm 14.3 9.9 -2.6 31 6.8 NNW 11 13 6 7 1015.9 1015.9 0.0
03/10:30pm 14.5 10.1 -2.8 30 6.9 NNW 11 11 6 6 1015.9 1015.9 0.0
03/10:00pm 14.6 10.2 -2.8 30 7.0 NNW 11 13 6 7 1015.9 1015.9 0.0
03/09:30pm 14.8 10.4 -2.1 31 6.9 NNW 11 11 6 6 1015.8 1015.8 0.0
03/09:00pm 15.1 11.1 -1.9 31 7.0 NNW 9 11 5 6 1015.8 1015.8 0.0
03/08:30pm 15.2 11.3 -1.8 31 7.0 NW 9 11 5 6 1015.6 1015.6 0.0
03/08:00pm 15.0 10.6 -2.4 30 7.1 NW 11 11 6 6 1015.6 1015.6 0.0
03/07:30pm 15.7 11.7 -2.3 29 7.4 NW 9 11 5 6 1015.3 1015.4 0.0
03/07:00pm 15.7 12.1 -2.3 29 7.4 NW 7 7 4 4 1015.2 1015.3 0.0
03/06:30pm 17.1 13.5 -2.0 27 8.0 NW 7 9 4 5 1015.1 1015.2 0.0
03/06:00pm 18.2 14.2 -2.1 25 8.6 NW 9 13 5 7 1015.0 1015.1 0.0
03/05:30pm 19.5 15.1 -2.2 23 9.3 NW 11 17 6 9 1014.9 1015.0 0.0
03/05:00pm 20.0 14.9 -1.7 23 9.4 WNW 15 19 8 10 1015.0 1015.1 0.0
03/04:30pm 20.3 14.9 -1.5 23 9.5 WNW 17 24 9 13 1015.2 1015.3 0.0
03/04:00pm 19.8 15.1 -1.9 23 9.3 NW 13 19 7 10 1015.3 1015.4 0.0
03/03:30pm 20.0 14.6 -1.2 24 9.3 WNW 17 20 9 11 1015.6 1015.6 0.0
03/03:00pm 20.1 15.0 -1.7 23 9.4 NW 15 22 8 12 1015.7 1015.7 0.0
03/02:30pm 19.4 13.6 -1.7 24 9.1 WNW 19 24 10 13 1016.0 1016.0 0.0
03/02:00pm 19.5 13.7 -1.6 24 9.1 WNW 19 28 10 15 1016.3 1016.3 0.0
03/01:30pm 19.8 14.0 -1.3 24 9.2 WNW 19 26 10 14 1016.7 1016.7 0.0
03/01:00pm 19.5 13.5 -1.6 24 9.1 NW 20 26 11 14 1017.3 1017.4 0.0
03/12:30pm 19.6 13.6 -1.5 24 9.1 NW 20 26 11 14 1017.8 1017.9 0.0
03/12:00pm 19.7 14.4 -0.9 25 9.0 NW 17 26 9 14 1018.4 1018.5 0.0
03/11:30am 19.1 13.4 -0.8 26 8.7 NNW 19 26 10 14 1018.7 1018.8 0.0
03/11:00am 18.0 13.4 -1.3 27 8.3 NW 13 20 7 11 1019.4 1019.4 0.0
03/10:30am 17.4 13.2 -0.8 29 7.8 NW 11 15 6 8 1019.9 1020.0 0.0
03/10:00am 16.9 12.7 -1.2 29 7.7 NW 11 15 6 8 1019.9 1020.0 0.0
03/09:30am 13.7 10.5 -0.7 37 6.0 NE 6 7 3 4 1019.8 1019.8 0.0
03/09:00am 11.2 7.7 -1.5 41 5.1 NE 7 9 4 5 1019.7 1019.7 0.0
03/08:30am 9.3 5.3 -2.0 45 4.4 ENE 9 11 5 6 1019.5 1019.5 0.0
03/08:00am 7.3 2.9 -2.7 49 3.7 NE 11 13 6 7 1019.4 1019.4 0.0
03/07:30am 6.8 1.9 -3.1 49 3.6 NE 13 13 7 7 1019.3 1019.3 0.0
03/07:00am 6.8 1.9 -3.1 49 3.6 NE 13 13 7 7 1019.1 1019.2 0.0
03/06:30am 7.1 2.6 -3.4 47 3.8 NNE 11 13 6 7 1019.0 1019.1 0.0
03/06:00am 8.4 3.5 -3.1 44 4.3 NNE 13 15 7 8 1018.9 1019.0 0.0
03/05:30am 10.9 5.8 -1.8 41 5.0 NNE 15 17 8 9 1018.8 1018.9 0.0
03/05:00am 9.9 5.1 -2.4 42 4.7 NNE 13 15 7 8 1018.9 1019.0 0.0
03/04:30am 11.7 7.0 -1.8 39 5.4 NNE 13 15 7 8 1019.1 1019.2 0.0
03/04:00am 11.9 7.1 -2.3 37 5.6 NNE 13 15 7 8 1019.1 1019.2 0.0
03/03:30am 10.0 5.5 -3.3 39 5.0 NNE 11 13 6 7 1019.3 1019.3 0.0
03/03:00am 7.5 2.5 -4.6 42 4.3 NE 13 15 7 8 1019.5 1019.5 0.0
03/02:30am 8.1 3.8 -5.3 38 4.7 NNE 9 13 5 7 1019.7 1019.7 0.0
03/02:00am 9.2 5.9 -4.7 37 5.0 NNE 4 13 2 7 1020.1 1020.2 0.0
03/01:30am 9.5 7.0 -4.1 38 5.0 CALM 0 0 0 0 1020.2 1020.3 0.0
03/01:00am 9.0 6.4 -4.9 37 5.0 CALM 0 0 0 0 1020.5 1020.6 0.0
03/12:30am 8.6 4.9 -4.9 38 4.8 NE 6 7 3 4 1020.6 1020.7 0.0
03/12:00am 8.3 4.0 -5.2 38 4.8 NE 9 9 5 5 1020.7 1020.8 0.0
 
Date/Time
EST
Temp
°C
App
Temp
°C
Dew
Point
°C
Rel
Hum
%
Delta-T
°C
Wind Press
QNH
hPa
Press
MSL
hPa
Rain since
9am
mm
Dir  Spd
km/h
Gust
km/h
Spd
kts
Gust
kts
02/11:30pm 11.2 6.6 -4.5 33 5.9 N 11 11 6 6 1020.8 1020.9 0.0
02/11:00pm 11.9 7.3 -3.8 33 6.0 NNE 11 13 6 7 1021.0 1021.1 0.0
02/10:30pm 8.8 6.2 -5.4 36 5.0 CALM 0 0 0 0 1021.0 1021.1 0.0
02/10:00pm 11.6 9.1 -4.1 33 5.9 CALM 0 0 0 0 1021.1 1021.2 0.0
02/09:30pm 11.8 9.4 -3.5 34 5.9 CALM 0 0 0 0 1021.3 1021.4 0.0

Other formats

Comma delimited format used in spreadsheet applications
http://www.bom.gov.au/fwo/IDN60801/IDN60801.94691.axf

JavaScript Object Notation format (JSON) in row-major order
http://www.bom.gov.au/fwo/IDN60801/IDN60801.94691.json

Data quality

Most of these data are generated automatically and are frequently updated. Quality checks on data are not normally performed. It is possible for incorrect values to appear. Refer to information at About Latest Weather Observations and please check the disclaimer before using these data.